createdAt,value
2022-09-18T00:00:03.384Z,967.89
2022-09-18T00:01:03.627Z,967.89
2022-09-18T00:02:03.904Z,967.89
2022-09-18T00:03:04.185Z,967.85
2022-09-18T00:04:05.146Z,967.87
2022-09-18T00:05:04.687Z,967.84
2022-09-18T00:06:04.937Z,967.96
2022-09-18T00:07:05.179Z,967.89
2022-09-18T00:08:05.418Z,967.97
2022-09-18T00:09:05.678Z,967.95
2022-09-18T00:10:05.920Z,967.96
2022-09-18T00:11:06.159Z,968.01
2022-09-18T00:12:06.400Z,967.99
2022-09-18T00:13:06.640Z,968.02
2022-09-18T00:14:07.697Z,968.02
2022-09-18T00:15:07.120Z,967.99
2022-09-18T00:16:07.383Z,968.10
2022-09-18T00:17:09.247Z,968.13
2022-09-18T00:18:07.961Z,968.10
2022-09-18T00:19:09.822Z,968.10
2022-09-18T00:20:08.512Z,968.16
2022-09-18T00:21:08.754Z,968.14
2022-09-18T00:22:08.992Z,968.29
2022-09-18T00:23:09.250Z,968.20
2022-09-18T00:24:09.492Z,968.23
2022-09-18T00:25:09.750Z,968.19
2022-09-18T00:26:09.983Z,968.22
2022-09-18T00:27:10.224Z,968.29
2022-09-18T00:28:10.465Z,968.21
2022-09-18T00:29:10.712Z,968.23
2022-09-18T00:30:10.949Z,968.21
2022-09-18T00:31:11.235Z,968.25
2022-09-18T00:32:11.463Z,968.22
2022-09-18T00:33:11.732Z,968.26
2022-09-18T00:34:11.977Z,968.25
2022-09-18T00:35:12.216Z,968.27
2022-09-18T00:36:12.465Z,968.24
2022-09-18T00:37:12.707Z,968.25
2022-09-18T00:38:12.957Z,968.25
2022-09-18T00:39:13.198Z,968.25
2022-09-18T00:40:13.501Z,968.22
2022-09-18T00:41:13.736Z,968.24
2022-09-18T00:42:13.968Z,968.26
2022-09-18T00:43:14.373Z,968.24
2022-09-18T00:44:15.307Z,968.26
2022-09-18T00:45:14.729Z,968.25
2022-09-18T00:46:15.025Z,968.21
2022-09-18T00:47:15.259Z,968.26
2022-09-18T00:48:15.499Z,968.23
2022-09-18T00:49:17.472Z,968.25
2022-09-18T00:50:16.052Z,968.27
2022-09-18T00:51:16.291Z,968.27
2022-09-18T00:52:16.531Z,968.26
2022-09-18T00:53:16.772Z,968.25
2022-09-18T00:54:17.012Z,968.27
2022-09-18T00:55:17.262Z,968.22
2022-09-18T00:56:17.506Z,968.27
2022-09-18T00:57:17.753Z,968.26
2022-09-18T00:58:17.995Z,968.23
2022-09-18T00:59:18.233Z,968.27
2022-09-18T01:00:18.483Z,968.24
2022-09-18T01:01:18.767Z,968.27
2022-09-18T01:02:19.061Z,968.25
2022-09-18T01:03:19.306Z,968.22
2022-09-18T01:04:19.565Z,968.23
2022-09-18T01:05:19.814Z,968.21
2022-09-18T01:06:20.055Z,968.24
2022-09-18T01:07:20.297Z,968.25
2022-09-18T01:08:20.548Z,968.26
2022-09-18T01:09:28.371Z,968.21
2022-09-18T01:10:22.027Z,968.26
2022-09-18T01:11:21.328Z,968.25
2022-09-18T01:12:21.579Z,968.27
2022-09-18T01:13:21.860Z,968.27
2022-09-18T01:14:22.928Z,968.29
2022-09-18T01:15:22.357Z,968.30
2022-09-18T01:16:22.633Z,968.22
2022-09-18T01:17:22.879Z,968.24
2022-09-18T01:18:23.128Z,968.24
2022-09-18T01:19:24.989Z,968.22
2022-09-18T01:20:23.673Z,968.27
2022-09-18T01:21:23.918Z,968.26
2022-09-18T01:22:24.171Z,968.22
2022-09-18T01:23:24.412Z,968.34
2022-09-18T01:24:24.651Z,968.31
2022-09-18T01:25:24.903Z,968.33
2022-09-18T01:26:25.151Z,968.35
2022-09-18T01:27:25.393Z,968.34
2022-09-18T01:28:25.633Z,968.32
2022-09-18T01:29:25.885Z,968.38
2022-09-18T01:30:26.124Z,968.35
2022-09-18T01:31:26.399Z,968.32
2022-09-18T01:32:26.664Z,968.32
2022-09-18T01:33:26.905Z,968.33
2022-09-18T01:34:27.163Z,968.39
2022-09-18T01:35:41.189Z,968.32
2022-09-18T01:36:28.636Z,968.31
2022-09-18T01:37:27.940Z,968.32
2022-09-18T01:38:28.175Z,968.32
2022-09-18T01:39:28.417Z,968.33
2022-09-18T01:40:28.747Z,968.35
2022-09-18T01:41:28.945Z,968.35
2022-09-18T01:42:29.237Z,968.38
2022-09-18T01:43:29.525Z,968.36
2022-09-18T01:44:30.578Z,968.38
2022-09-18T01:45:30.009Z,968.32
2022-09-18T01:46:30.299Z,968.39
2022-09-18T01:47:30.519Z,968.41
2022-09-18T01:48:30.759Z,968.38
2022-09-18T01:49:32.689Z,968.44
2022-09-18T01:50:31.269Z,968.40
2022-09-18T01:51:31.510Z,968.41
2022-09-18T01:52:31.757Z,968.45
2022-09-18T01:53:32.042Z,968.43
2022-09-18T01:54:32.290Z,968.43
2022-09-18T01:55:32.531Z,968.42
2022-09-18T01:56:32.772Z,968.42
2022-09-18T01:57:33.014Z,968.40
2022-09-18T01:58:33.262Z,968.41
2022-09-18T01:59:34.322Z,968.38
2022-09-18T02:00:33.758Z,968.41
2022-09-18T02:01:34.095Z,968.44
2022-09-18T02:02:34.344Z,968.46
2022-09-18T02:03:34.583Z,968.45
2022-09-18T02:04:34.844Z,968.40
2022-09-18T02:05:35.083Z,968.39
2022-09-18T02:06:35.331Z,968.44
2022-09-18T02:07:35.564Z,968.41
2022-09-18T02:08:35.813Z,968.38
2022-09-18T02:09:36.066Z,968.43
2022-09-18T02:10:36.306Z,968.41
2022-09-18T02:11:36.555Z,968.44
2022-09-18T02:12:36.796Z,968.45
2022-09-18T02:13:37.046Z,968.48
2022-09-18T02:14:38.100Z,968.41
2022-09-18T02:15:37.517Z,968.46
2022-09-18T02:16:37.766Z,968.47
2022-09-18T02:17:37.999Z,968.46
2022-09-18T02:18:38.248Z,968.40
2022-09-18T02:19:40.108Z,968.44
2022-09-18T02:20:38.792Z,968.43
2022-09-18T02:21:39.029Z,968.36
2022-09-18T02:22:39.340Z,968.35
2022-09-18T02:23:39.685Z,968.38
2022-09-18T02:24:39.892Z,968.33
2022-09-18T02:25:40.131Z,968.30
2022-09-18T02:26:40.381Z,968.35
2022-09-18T02:27:40.610Z,968.32
2022-09-18T02:28:40.852Z,968.33
2022-09-18T02:29:41.094Z,968.28
2022-09-18T02:30:41.345Z,968.28
2022-09-18T02:31:41.628Z,968.31
2022-09-18T02:32:41.914Z,968.30
2022-09-18T02:33:42.184Z,968.31
2022-09-18T02:34:42.436Z,968.33
2022-09-18T02:35:42.673Z,968.27
2022-09-18T02:36:42.922Z,968.27
2022-09-18T02:37:43.154Z,968.31
2022-09-18T02:38:43.406Z,968.29
2022-09-18T02:39:43.645Z,968.28
2022-09-18T02:40:43.895Z,968.27
2022-09-18T02:41:44.136Z,968.22
2022-09-18T02:42:44.385Z,968.24
2022-09-18T02:43:44.626Z,968.28
2022-09-18T02:44:44.866Z,968.27
2022-09-18T02:45:45.107Z,968.23
2022-09-18T02:46:45.400Z,968.25
2022-09-18T02:47:45.627Z,968.25
2022-09-18T02:48:45.868Z,968.23
2022-09-18T02:49:47.928Z,968.22
2022-09-18T02:50:46.368Z,968.23
2022-09-18T02:51:46.618Z,968.24
2022-09-18T02:52:46.857Z,968.21
2022-09-18T02:53:47.089Z,968.20
2022-09-18T02:54:47.340Z,968.19
2022-09-18T02:55:47.590Z,968.22
2022-09-18T02:56:47.841Z,968.22
2022-09-18T02:57:48.078Z,968.16
2022-09-18T02:58:48.331Z,968.15
2022-09-18T02:59:49.389Z,968.20
2022-09-18T03:00:48.846Z,968.18
2022-09-18T03:01:49.163Z,968.18
2022-09-18T03:02:49.450Z,968.22
2022-09-18T03:03:49.713Z,968.23
2022-09-18T03:04:49.972Z,968.23
2022-09-18T03:05:50.213Z,968.26
2022-09-18T03:06:50.455Z,968.28
2022-09-18T03:07:50.693Z,968.28
2022-09-18T03:08:50.933Z,968.28
2022-09-18T03:09:51.232Z,968.19
2022-09-18T03:10:51.464Z,968.24
2022-09-18T03:11:51.716Z,968.23
2022-09-18T03:12:51.957Z,968.21
2022-09-18T03:13:52.233Z,968.25
2022-09-18T03:14:53.136Z,968.21
2022-09-18T03:15:52.840Z,968.28
2022-09-18T03:16:53.056Z,968.28
2022-09-18T03:17:53.297Z,968.24
2022-09-18T03:18:53.537Z,968.25
2022-09-18T03:19:55.398Z,968.26
2022-09-18T03:20:54.078Z,968.20
2022-09-18T03:21:54.326Z,968.25
2022-09-18T03:22:54.558Z,968.24
2022-09-18T03:23:54.798Z,968.23
2022-09-18T03:24:55.050Z,968.22
2022-09-18T03:25:55.295Z,968.23
2022-09-18T03:26:55.529Z,968.24
2022-09-18T03:27:55.771Z,968.22
2022-09-18T03:28:56.010Z,968.25
2022-09-18T03:29:56.250Z,968.21
2022-09-18T03:30:56.542Z,968.25
2022-09-18T03:31:56.814Z,968.20
2022-09-18T03:32:57.061Z,968.20
2022-09-18T03:33:57.309Z,968.19
2022-09-18T03:34:57.582Z,968.19
2022-09-18T03:35:57.834Z,968.19
2022-09-18T03:36:58.074Z,968.17
2022-09-18T03:37:58.351Z,968.18
2022-09-18T03:38:58.701Z,968.16
2022-09-18T03:39:59.011Z,968.19
2022-09-18T03:40:59.204Z,968.13
2022-09-18T03:41:59.475Z,968.18
2022-09-18T03:42:59.714Z,968.16
2022-09-18T03:43:59.955Z,968.13
2022-09-18T03:45:00.208Z,968.17
2022-09-18T03:46:00.449Z,968.14
2022-09-18T03:47:00.748Z,968.17
2022-09-18T03:48:00.975Z,968.15
2022-09-18T03:49:01.207Z,968.18
2022-09-18T03:50:03.017Z,968.21
2022-09-18T03:51:01.697Z,968.15
2022-09-18T03:52:01.945Z,968.18
2022-09-18T03:53:02.201Z,968.15
2022-09-18T03:54:02.470Z,968.20
2022-09-18T03:55:02.715Z,968.12
2022-09-18T03:56:02.966Z,968.12
2022-09-18T03:57:03.199Z,968.08
2022-09-18T03:58:03.440Z,968.07
2022-09-18T03:59:03.719Z,968.10
2022-09-18T04:00:04.830Z,968.14
2022-09-18T04:01:04.229Z,968.12
2022-09-18T04:02:04.513Z,968.09
2022-09-18T04:03:04.832Z,968.09
2022-09-18T04:04:05.046Z,968.10
2022-09-18T04:05:06.101Z,968.11
2022-09-18T04:06:05.534Z,968.08
2022-09-18T04:07:05.772Z,968.08
2022-09-18T04:08:06.015Z,968.13
2022-09-18T04:09:06.252Z,968.11
2022-09-18T04:10:06.514Z,968.16
2022-09-18T04:11:06.753Z,968.10
2022-09-18T04:12:06.994Z,968.14
2022-09-18T04:13:07.234Z,968.15
2022-09-18T04:14:07.476Z,968.11
2022-09-18T04:15:08.532Z,968.14
2022-09-18T04:16:07.987Z,968.19
2022-09-18T04:17:08.246Z,968.17
2022-09-18T04:18:08.495Z,968.17
2022-09-18T04:19:08.736Z,968.18
2022-09-18T04:20:10.596Z,968.16
2022-09-18T04:21:09.296Z,968.24
2022-09-18T04:22:09.534Z,968.24
2022-09-18T04:23:09.767Z,968.23
2022-09-18T04:24:10.017Z,968.23
2022-09-18T04:25:10.253Z,968.21
2022-09-18T04:26:10.515Z,968.20
2022-09-18T04:27:10.736Z,968.15
2022-09-18T04:28:10.975Z,968.19
2022-09-18T04:29:11.209Z,968.15
2022-09-18T04:30:12.259Z,968.23
2022-09-18T04:31:11.718Z,968.13
2022-09-18T04:32:11.997Z,968.17
2022-09-18T04:33:12.261Z,968.16
2022-09-18T04:34:12.486Z,968.18
2022-09-18T04:35:12.741Z,968.17
2022-09-18T04:36:12.983Z,968.13
2022-09-18T04:37:13.223Z,968.16
2022-09-18T04:38:13.469Z,968.10
2022-09-18T04:39:13.702Z,968.20
2022-09-18T04:40:13.981Z,968.21
2022-09-18T04:41:14.202Z,968.17
2022-09-18T04:42:14.464Z,968.24
2022-09-18T04:43:14.701Z,968.17
2022-09-18T04:44:14.947Z,968.18
2022-09-18T04:45:15.195Z,968.14
2022-09-18T04:46:15.484Z,968.16
2022-09-18T04:47:15.704Z,968.19
2022-09-18T04:48:15.944Z,968.25
2022-09-18T04:49:16.188Z,968.21
2022-09-18T04:50:18.054Z,968.20
2022-09-18T04:51:16.737Z,968.24
2022-09-18T04:52:16.977Z,968.33
2022-09-18T04:53:17.232Z,968.18
2022-09-18T04:54:17.465Z,968.19
2022-09-18T04:55:17.707Z,968.25
2022-09-18T04:56:17.998Z,968.22
2022-09-18T04:57:18.238Z,968.21
2022-09-18T04:58:18.478Z,968.23
2022-09-18T04:59:18.728Z,968.20
2022-09-18T05:00:18.968Z,968.23
2022-09-18T05:01:19.299Z,968.25
2022-09-18T05:02:19.493Z,968.24
2022-09-18T05:03:19.729Z,968.23
2022-09-18T05:04:19.968Z,968.21
2022-09-18T05:05:20.211Z,968.23
2022-09-18T05:06:20.462Z,968.18
2022-09-18T05:07:20.752Z,968.24
2022-09-18T05:08:20.999Z,968.26
2022-09-18T05:09:21.239Z,968.24
2022-09-18T05:10:21.474Z,968.31
2022-09-18T05:11:21.721Z,968.37
2022-09-18T05:12:21.960Z,968.32
2022-09-18T05:13:22.201Z,968.33
2022-09-18T05:14:22.461Z,968.25
2022-09-18T05:15:22.688Z,968.29
2022-09-18T05:16:22.985Z,968.28
2022-09-18T05:17:23.224Z,968.30
2022-09-18T05:18:23.474Z,968.35
2022-09-18T05:19:23.724Z,968.30
2022-09-18T05:20:23.973Z,968.35
2022-09-18T05:21:24.215Z,968.33
2022-09-18T05:22:24.456Z,968.32
2022-09-18T05:23:24.695Z,968.33
2022-09-18T05:24:24.936Z,968.38
2022-09-18T05:25:25.176Z,968.36
2022-09-18T05:26:25.427Z,968.44
2022-09-18T05:27:27.053Z,968.39
2022-09-18T05:28:25.947Z,968.48
2022-09-18T05:29:26.195Z,968.37
2022-09-18T05:30:26.437Z,968.45
2022-09-18T05:31:26.848Z,968.51
2022-09-18T05:32:26.950Z,968.46
2022-09-18T05:33:27.189Z,968.50
2022-09-18T05:34:27.434Z,968.53
2022-09-18T05:35:27.669Z,968.53
2022-09-18T05:36:28.860Z,968.56
2022-09-18T05:37:28.158Z,968.58
2022-09-18T05:38:28.400Z,968.59
2022-09-18T05:39:28.641Z,968.58
2022-09-18T05:40:28.921Z,968.62
2022-09-18T05:41:29.189Z,968.65
2022-09-18T05:42:29.421Z,968.62
2022-09-18T05:43:29.667Z,968.66
2022-09-18T05:44:29.902Z,968.65
2022-09-18T05:45:30.142Z,968.60
2022-09-18T05:46:30.417Z,968.62
2022-09-18T05:47:30.693Z,968.65
2022-09-18T05:48:30.935Z,968.61
2022-09-18T05:49:31.184Z,968.61
2022-09-18T05:50:31.455Z,968.60
2022-09-18T05:51:31.684Z,968.61
2022-09-18T05:52:31.924Z,968.64
2022-09-18T05:53:32.165Z,968.68
2022-09-18T05:54:32.435Z,968.61
2022-09-18T05:55:32.676Z,968.64
2022-09-18T05:56:32.933Z,968.65
2022-09-18T05:57:33.176Z,968.59
2022-09-18T05:58:33.416Z,968.61
2022-09-18T05:59:33.658Z,968.65
2022-09-18T06:00:33.900Z,968.61
2022-09-18T06:01:34.213Z,968.58
2022-09-18T06:02:34.484Z,968.59
2022-09-18T06:03:34.708Z,968.58
2022-09-18T06:04:34.958Z,968.57
2022-09-18T06:05:35.199Z,968.59
2022-09-18T06:06:35.454Z,968.58
2022-09-18T06:07:35.689Z,968.62
2022-09-18T06:08:35.945Z,968.62
2022-09-18T06:09:36.179Z,968.66
2022-09-18T06:10:36.421Z,968.65
2022-09-18T06:11:36.661Z,968.65
2022-09-18T06:12:36.901Z,968.65
2022-09-18T06:13:37.148Z,968.65
2022-09-18T06:14:37.391Z,968.61
2022-09-18T06:15:37.631Z,968.61
2022-09-18T06:16:42.135Z,968.61
2022-09-18T06:17:38.121Z,968.62
2022-09-18T06:18:38.364Z,968.62
2022-09-18T06:19:38.603Z,968.61
2022-09-18T06:20:38.861Z,968.62
2022-09-18T06:21:39.102Z,968.66
2022-09-18T06:22:39.345Z,968.67
2022-09-18T06:23:39.588Z,968.69
2022-09-18T06:24:39.833Z,968.73
2022-09-18T06:25:40.072Z,968.77
2022-09-18T06:26:40.322Z,968.66
2022-09-18T06:27:40.557Z,968.68
2022-09-18T06:28:40.803Z,968.73
2022-09-18T06:29:41.055Z,968.83
2022-09-18T06:30:41.371Z,968.81
2022-09-18T06:31:41.692Z,968.84
2022-09-18T06:32:41.927Z,968.79
2022-09-18T06:33:42.167Z,968.89
2022-09-18T06:34:42.428Z,968.88
2022-09-18T06:35:42.679Z,968.95
2022-09-18T06:36:42.918Z,968.91
2022-09-18T06:37:43.160Z,968.90
2022-09-18T06:38:43.399Z,968.91
2022-09-18T06:39:43.640Z,968.94
2022-09-18T06:40:43.948Z,968.90
2022-09-18T06:41:44.170Z,968.95
2022-09-18T06:42:46.139Z,968.88
2022-09-18T06:43:44.680Z,968.96
2022-09-18T06:44:45.880Z,968.97
2022-09-18T06:45:45.181Z,968.93
2022-09-18T06:46:45.525Z,969.00
2022-09-18T06:47:45.733Z,968.97
2022-09-18T06:48:45.972Z,968.99
2022-09-18T06:49:46.212Z,968.99
2022-09-18T06:50:46.452Z,969.04
2022-09-18T06:51:46.700Z,969.02
2022-09-18T06:52:46.942Z,969.09
2022-09-18T06:53:47.174Z,969.06
2022-09-18T06:54:47.413Z,969.02
2022-09-18T06:55:47.667Z,969.08
2022-09-18T06:56:47.905Z,969.04
2022-09-18T06:57:48.145Z,969.01
2022-09-18T06:58:48.397Z,968.99
2022-09-18T06:59:48.633Z,969.06
2022-09-18T07:00:48.953Z,969.05
2022-09-18T07:01:49.208Z,969.01
2022-09-18T07:02:49.464Z,969.01
2022-09-18T07:03:49.705Z,969.09
2022-09-18T07:04:49.945Z,969.06
2022-09-18T07:05:50.187Z,969.12
2022-09-18T07:06:50.444Z,969.06
2022-09-18T07:07:50.678Z,969.11
2022-09-18T07:08:50.922Z,969.11
2022-09-18T07:09:51.168Z,969.08
2022-09-18T07:10:51.410Z,969.14
2022-09-18T07:11:51.659Z,969.09
2022-09-18T07:12:51.909Z,969.08
2022-09-18T07:13:52.152Z,969.13
2022-09-18T07:14:52.430Z,969.10
2022-09-18T07:15:52.694Z,969.15
2022-09-18T07:16:52.959Z,969.11
2022-09-18T07:17:53.200Z,969.14
2022-09-18T07:18:53.441Z,969.08
2022-09-18T07:19:53.687Z,969.11
2022-09-18T07:20:53.925Z,969.12
2022-09-18T07:21:54.164Z,969.10
2022-09-18T07:22:54.414Z,969.13
2022-09-18T07:23:54.653Z,969.13
2022-09-18T07:24:54.895Z,969.11
2022-09-18T07:25:55.142Z,969.06
2022-09-18T07:26:55.383Z,969.06
2022-09-18T07:27:55.641Z,969.11
2022-09-18T07:28:55.874Z,969.08
2022-09-18T07:29:56.122Z,969.04
2022-09-18T07:30:56.384Z,969.07
2022-09-18T07:31:56.666Z,969.06
2022-09-18T07:32:56.912Z,969.07
2022-09-18T07:33:57.156Z,969.12
2022-09-18T07:34:57.393Z,969.08
2022-09-18T07:35:57.635Z,969.13
2022-09-18T07:36:57.915Z,969.14
2022-09-18T07:37:58.159Z,969.11
2022-09-18T07:38:58.397Z,969.19
2022-09-18T07:39:58.677Z,969.11
2022-09-18T07:40:58.919Z,969.06
2022-09-18T07:41:59.168Z,969.15
2022-09-18T07:42:59.440Z,969.16
2022-09-18T07:43:59.680Z,969.14
2022-09-18T07:44:59.928Z,969.13
2022-09-18T07:46:00.181Z,969.14
2022-09-18T07:47:00.524Z,969.18
2022-09-18T07:48:00.751Z,969.10
2022-09-18T07:49:00.999Z,969.15
2022-09-18T07:50:01.245Z,969.13
2022-09-18T07:51:01.479Z,969.20
2022-09-18T07:52:01.723Z,969.13
2022-09-18T07:53:01.982Z,969.15
2022-09-18T07:54:02.292Z,969.19
2022-09-18T07:55:02.502Z,969.11
2022-09-18T07:56:02.746Z,969.17
2022-09-18T07:57:02.994Z,969.11
2022-09-18T07:58:03.233Z,969.18
2022-09-18T07:59:03.473Z,969.19
2022-09-18T08:00:03.715Z,969.24
2022-09-18T08:01:03.985Z,969.19
2022-09-18T08:02:04.379Z,969.19
2022-09-18T08:03:04.642Z,969.14
2022-09-18T08:04:04.785Z,969.22
2022-09-18T08:05:05.035Z,969.18
2022-09-18T08:06:05.284Z,969.24
2022-09-18T08:07:05.523Z,969.25
2022-09-18T08:08:05.765Z,969.17
2022-09-18T08:09:06.133Z,969.26
2022-09-18T08:10:06.255Z,969.16
2022-09-18T08:11:06.487Z,969.32
2022-09-18T08:12:06.737Z,969.15
2022-09-18T08:13:06.979Z,969.26
2022-09-18T08:14:07.218Z,969.21
2022-09-18T08:15:07.458Z,969.24
2022-09-18T08:16:07.740Z,969.29
2022-09-18T08:17:07.989Z,969.30
2022-09-18T08:18:08.229Z,969.31
2022-09-18T08:19:08.479Z,969.31
2022-09-18T08:20:08.720Z,969.28
2022-09-18T08:21:10.768Z,969.33
2022-09-18T08:22:09.243Z,969.22
2022-09-18T08:23:09.480Z,969.30
2022-09-18T08:24:09.721Z,969.20
2022-09-18T08:25:09.962Z,969.25
2022-09-18T08:26:10.202Z,969.29
2022-09-18T08:27:10.444Z,969.29
2022-09-18T08:28:10.686Z,969.33
2022-09-18T08:29:10.923Z,969.35
2022-09-18T08:30:11.163Z,969.36
2022-09-18T08:31:11.416Z,969.37
2022-09-18T08:32:12.162Z,969.33
2022-09-18T08:33:11.945Z,969.34
2022-09-18T08:34:12.184Z,969.32
2022-09-18T08:35:12.438Z,969.37
2022-09-18T08:36:12.674Z,969.35
2022-09-18T08:37:12.915Z,969.36
2022-09-18T08:38:13.155Z,969.33
2022-09-18T08:39:13.396Z,969.32
2022-09-18T08:40:13.716Z,969.26
2022-09-18T08:41:13.937Z,969.34
2022-09-18T08:42:14.194Z,969.32
2022-09-18T08:43:14.447Z,969.37
2022-09-18T08:44:14.697Z,969.41
2022-09-18T08:45:14.939Z,969.37
2022-09-18T08:46:15.189Z,969.24
2022-09-18T08:47:15.439Z,969.34
2022-09-18T08:48:15.678Z,969.27
2022-09-18T08:49:15.927Z,969.39
2022-09-18T08:50:16.169Z,969.35
2022-09-18T08:51:16.410Z,969.26
2022-09-18T08:52:16.659Z,969.37
2022-09-18T08:53:16.901Z,969.36
2022-09-18T08:54:17.148Z,969.32
2022-09-18T08:55:17.381Z,969.32
2022-09-18T08:56:17.632Z,969.23
2022-09-18T08:57:17.883Z,969.33
2022-09-18T08:58:18.129Z,969.32
2022-09-18T08:59:18.362Z,969.35
2022-09-18T09:00:18.674Z,969.33
2022-09-18T09:01:18.985Z,969.33
2022-09-18T09:02:24.289Z,969.35
2022-09-18T09:03:20.424Z,969.36
2022-09-18T09:04:19.725Z,969.38
2022-09-18T09:05:19.974Z,969.37
2022-09-18T09:06:20.224Z,969.40
2022-09-18T09:07:20.464Z,969.35
2022-09-18T09:08:20.705Z,969.36
2022-09-18T09:09:21.603Z,969.38
2022-09-18T09:10:21.245Z,969.42
2022-09-18T09:11:21.495Z,969.41
2022-09-18T09:12:21.745Z,969.40
2022-09-18T09:13:21.995Z,969.42
2022-09-18T09:14:39.609Z,969.36
2022-09-18T09:15:23.458Z,969.46
2022-09-18T09:16:22.846Z,969.42
2022-09-18T09:17:23.041Z,969.42
2022-09-18T09:18:23.288Z,969.45
2022-09-18T09:19:23.528Z,969.44
2022-09-18T09:20:23.769Z,969.41
2022-09-18T09:21:24.008Z,969.45
2022-09-18T09:22:24.259Z,969.45
2022-09-18T09:23:24.508Z,969.50
2022-09-18T09:24:24.750Z,969.48
2022-09-18T09:25:24.991Z,969.49
2022-09-18T09:26:25.238Z,969.44
2022-09-18T09:27:25.481Z,969.50
2022-09-18T09:28:25.730Z,969.52
2022-09-18T09:29:25.961Z,969.47
2022-09-18T09:30:26.215Z,969.52
2022-09-18T09:31:26.602Z,969.56
2022-09-18T09:32:26.682Z,969.54
2022-09-18T09:33:26.924Z,969.52
2022-09-18T09:34:27.173Z,969.50
2022-09-18T09:35:27.411Z,969.53
2022-09-18T09:36:27.651Z,969.57
2022-09-18T09:37:31.729Z,969.61
2022-09-18T09:38:29.154Z,969.53
2022-09-18T09:39:28.454Z,969.52
2022-09-18T09:40:28.761Z,969.57
2022-09-18T09:41:28.993Z,969.61
2022-09-18T09:42:29.235Z,969.52
2022-09-18T09:43:29.476Z,969.56
2022-09-18T09:44:29.726Z,969.53
2022-09-18T09:45:29.965Z,969.59
2022-09-18T09:46:30.219Z,969.58
2022-09-18T09:47:30.457Z,969.58
2022-09-18T09:48:30.708Z,969.52
2022-09-18T09:49:30.957Z,969.51
2022-09-18T09:50:31.199Z,969.50
2022-09-18T09:51:31.438Z,969.45
2022-09-18T09:52:31.687Z,969.48
2022-09-18T09:53:31.969Z,969.52
2022-09-18T09:54:32.209Z,969.49
2022-09-18T09:55:32.449Z,969.53
2022-09-18T09:56:32.702Z,969.49
2022-09-18T09:57:32.950Z,969.51
2022-09-18T09:58:33.190Z,969.51
2022-09-18T09:59:33.430Z,969.48
2022-09-18T10:00:33.685Z,969.50
2022-09-18T10:01:34.002Z,969.48
2022-09-18T10:02:34.228Z,969.49
2022-09-18T10:03:34.481Z,969.53
2022-09-18T10:04:34.722Z,969.43
2022-09-18T10:05:34.974Z,969.35
2022-09-18T10:06:35.212Z,969.45
2022-09-18T10:07:35.470Z,969.44
2022-09-18T10:08:35.714Z,969.44
2022-09-18T10:09:35.956Z,969.35
2022-09-18T10:10:36.193Z,969.42
2022-09-18T10:11:36.436Z,969.47
2022-09-18T10:12:36.696Z,969.46
2022-09-18T10:13:36.934Z,969.36
2022-09-18T10:14:37.175Z,969.39
2022-09-18T10:15:37.415Z,969.47
2022-09-18T10:16:37.716Z,969.42
2022-09-18T10:17:37.935Z,969.39
2022-09-18T10:18:38.176Z,969.40
2022-09-18T10:19:38.430Z,969.50
2022-09-18T10:20:38.708Z,969.55
2022-09-18T10:21:38.979Z,969.47
2022-09-18T10:22:39.227Z,969.48
2022-09-18T10:23:39.468Z,969.57
2022-09-18T10:24:39.708Z,969.57
2022-09-18T10:25:39.949Z,969.58
2022-09-18T10:26:40.188Z,969.55
2022-09-18T10:27:40.430Z,969.53
2022-09-18T10:28:40.678Z,969.62
2022-09-18T10:29:40.927Z,969.60
2022-09-18T10:30:41.150Z,969.68
2022-09-18T10:31:41.457Z,969.69
2022-09-18T10:32:41.700Z,969.64
2022-09-18T10:33:41.973Z,969.64
2022-09-18T10:34:42.219Z,969.66
2022-09-18T10:35:42.460Z,969.67
2022-09-18T10:36:42.701Z,969.67
2022-09-18T10:37:42.942Z,969.64
2022-09-18T10:38:43.197Z,969.67
2022-09-18T10:39:43.433Z,969.71
2022-09-18T10:40:43.724Z,969.66
2022-09-18T10:41:43.984Z,969.68
2022-09-18T10:42:44.233Z,969.63
2022-09-18T10:43:44.485Z,969.70
2022-09-18T10:44:44.724Z,969.71
2022-09-18T10:45:44.964Z,969.69
2022-09-18T10:46:45.309Z,969.65
2022-09-18T10:47:45.465Z,969.66
2022-09-18T10:48:45.705Z,969.73
2022-09-18T10:49:45.949Z,969.70
2022-09-18T10:50:46.196Z,969.66
2022-09-18T10:51:46.437Z,969.64
2022-09-18T10:52:46.689Z,969.68
2022-09-18T10:53:46.937Z,969.72
2022-09-18T10:54:47.179Z,969.73
2022-09-18T10:55:47.419Z,969.71
2022-09-18T10:56:47.666Z,969.64
2022-09-18T10:57:47.926Z,969.69
2022-09-18T10:58:48.162Z,969.71
2022-09-18T10:59:48.469Z,969.70
2022-09-18T11:00:48.771Z,969.64
2022-09-18T11:01:49.034Z,969.68
2022-09-18T11:02:49.270Z,969.73
2022-09-18T11:03:49.514Z,969.68
2022-09-18T11:04:49.757Z,969.64
2022-09-18T11:05:50.002Z,969.69
2022-09-18T11:06:50.242Z,969.66
2022-09-18T11:07:50.481Z,969.68
2022-09-18T11:08:50.732Z,969.67
2022-09-18T11:09:51.013Z,969.61
2022-09-18T11:10:51.252Z,969.61
2022-09-18T11:11:51.549Z,969.61
2022-09-18T11:12:55.554Z,969.62
2022-09-18T11:13:52.094Z,969.63
2022-09-18T11:14:52.361Z,969.58
2022-09-18T11:15:52.653Z,969.58
2022-09-18T11:16:52.894Z,969.61
2022-09-18T11:17:53.144Z,969.55
2022-09-18T11:18:53.383Z,969.58
2022-09-18T11:19:53.615Z,969.59
2022-09-18T11:20:53.863Z,969.59
2022-09-18T11:21:54.097Z,969.57
2022-09-18T11:22:54.355Z,969.52
2022-09-18T11:23:54.596Z,969.55
2022-09-18T11:24:54.836Z,969.57
2022-09-18T11:25:55.084Z,969.50
2022-09-18T11:26:55.328Z,969.44
2022-09-18T11:27:55.567Z,969.44
2022-09-18T11:28:55.809Z,969.40
2022-09-18T11:29:56.098Z,969.41
2022-09-18T11:30:56.345Z,969.35
2022-09-18T11:31:56.632Z,969.35
2022-09-18T11:32:56.899Z,969.35
2022-09-18T11:33:57.139Z,969.31
2022-09-18T11:34:57.390Z,969.28
2022-09-18T11:35:57.639Z,969.29
2022-09-18T11:36:57.900Z,969.32
2022-09-18T11:37:58.153Z,969.33
2022-09-18T11:38:58.410Z,969.30
2022-09-18T11:39:58.695Z,969.28
2022-09-18T11:40:58.952Z,969.28
2022-09-18T11:41:59.214Z,969.28
2022-09-18T11:42:59.463Z,969.26
2022-09-18T11:43:59.702Z,969.22
2022-09-18T11:44:59.943Z,969.24
2022-09-18T11:46:00.183Z,969.23
2022-09-18T11:47:00.531Z,969.23
2022-09-18T11:48:00.744Z,969.20
2022-09-18T11:49:04.489Z,969.23
2022-09-18T11:50:01.323Z,969.13
2022-09-18T11:51:01.563Z,969.18
2022-09-18T11:52:01.795Z,969.16
2022-09-18T11:53:02.045Z,969.15
2022-09-18T11:54:02.310Z,969.15
2022-09-18T11:55:02.536Z,969.20
2022-09-18T11:56:02.777Z,969.18
2022-09-18T11:57:03.018Z,969.16
2022-09-18T11:58:03.269Z,969.17
2022-09-18T11:59:03.508Z,969.20
2022-09-18T12:00:03.756Z,969.17
2022-09-18T12:01:05.264Z,969.17
2022-09-18T12:02:04.411Z,969.11
2022-09-18T12:03:04.690Z,969.18
2022-09-18T12:04:04.920Z,969.19
2022-09-18T12:05:05.158Z,969.13
2022-09-18T12:06:05.399Z,969.18
2022-09-18T12:07:05.640Z,969.16
2022-09-18T12:08:04.533Z,969.17
2022-09-18T12:09:04.772Z,969.15
2022-09-18T12:10:05.042Z,969.15
2022-09-18T12:11:05.310Z,969.14
2022-09-18T12:12:05.552Z,969.19
2022-09-18T12:13:05.799Z,969.17
2022-09-18T12:14:06.040Z,969.20
2022-09-18T12:15:06.288Z,969.17
2022-09-18T12:16:06.570Z,969.17
2022-09-18T12:17:06.819Z,969.11
2022-09-18T12:18:07.068Z,969.08
2022-09-18T12:19:07.297Z,969.10
2022-09-18T12:20:07.544Z,969.04
2022-09-18T12:21:07.784Z,969.00
2022-09-18T12:22:08.026Z,969.02
2022-09-18T12:23:08.276Z,969.05
2022-09-18T12:24:08.525Z,969.03
2022-09-18T12:25:08.775Z,968.99
2022-09-18T12:26:09.014Z,968.96
2022-09-18T12:27:09.253Z,968.96
2022-09-18T12:28:09.511Z,968.96
2022-09-18T12:29:09.762Z,968.94
2022-09-18T12:30:10.021Z,968.91
2022-09-18T12:31:10.313Z,968.93